Walkerville, Montana
Current Conditions -  °F | °C
As of 2:53 PM on Monday 24 Nov 2014 (Local Time) from KBTM Reporting Station
Clear Clear  
Wind Chill: 26°   Ceiling: Unl
Heat Index: 33°   Visibility: 10mi
Dew Point: 12°   Wind: 8mph
Humidity: 42%   Direction: 340°NNW
Pressure: 30.2"   Gusts: NA
Location:  45.9274°N, 112.504°W
Report Text: KBTM 242153Z AUTO 34007KT 10SM CLR 01/M11 A3020 RMK AO2 SLP259 T00061111
Loading
Personal Weather Stations






























Interactive Weather Map New forecast layout! Learn more

10-Day Weather Forecast

Advertisements
Track Severe Weather on mobile